Aberdeen, ID

9:21 PM MDT on September 23, 2014 (GMT -0600)
Pocatello Regional | Change Station
CLOSE
Current Station
Airport
Location: Pocatello,
Elevation: 4478 ft
Nearby Weather Stations

Elev 4478 ft 42.92 °N, 112.57 °W | Updated 28 minutes ago

Partly Cloudy
Partly Cloudy
70 °F
Feels Like 70 °F
N
4
Wind Variable Wind from Variable

Today
High -- | Low -- °F
--% Chance of Precip.
Yesterday
High -- | Low -- °F
Precip. -- in
7:19 AM 7:26 PM
Waning Crescent, 0% visible
Pressure 30.00 in
Visibility 10.0 miles
Clouds Clear
Dew Point 46 °F
Humidity 42%
Rainfall 0.00 in
Snow Depth 0 in , 0 in , 1 in
UV 0 out of 12
Pollen 6.80 out of 12
PM2.5 Good
Flu Activity Not available.
METAR KPIH 240253Z VRB03KT 10SM CLR 21/08 A3010 RMK AO2 SLP157 T02110078 55002

More Conditions Fewer Conditions

Pressure 30.00 in
Visibility 10.0 miles
Clouds Clear
Dew Point 46 °F
Humidity 42%
Rainfall 0.00 in
Snow Depth 0 in , 0 in , 1 in
UV 0 out of 12
Pollen 6.80 out of 12
PM2.5 Good
Flu Activity Not available.
METAR KPIH 240253Z VRB03KT 10SM CLR 21/08 A3010 RMK AO2 SLP157 T02110078 55002

More Conditions Fewer Conditions

10-Day Weather Forecast

Almanac

Astronomy

Sep. 23, 2014 Rise Set
Actual Time 7:19 AM MDT 7:26 PM MDT
Civil Twilight 6:51 AM MDT 7:54 PM MDT
Nautical Twilight 6:18 AM MDT 8:28 PM MDT
Astronomical Twilight 5:44 AM MDT 9:01 PM MDT
Moon 6:47 AM MDT (9/23) 7:07 PM MDT (9/23)
Length of Visible Light 13h 03m
Length of Day
12h 06m
Tomorrow will be 2m 54s shorter.
Waning Crescent, 0% of the Moon is Illuminated
Today
Waning Crescent
Sep 24
New
Oct 1
First Quarter
Oct 8
Full
Oct 15
Last Quarter

Today's Extremes

State Highs State Lows

Community

WunderPhotos

Upload Photos

1,755,877 photos uploaded!

WunderBlogs® & News

Nearby

Air Quality

  Air Quality AQ Index Pollutant
Yesterday Good
PM10
Current Good
PM2.5
Tuesday Good
PM2.5
Wednesday Good
PM2.5
Thursday Good
PM2.5

Snow Depth

Station Depth Elevation
Atlanta Summit 0 in 7580 ft
Bear Canyon 0 in 7900 ft
Vienna Mine 1 in 8960 ft
Hidden Lake 1 in 5040 ft
Wildhorse Divide 0 in 6490 ft

Earthquake Activity

City Distance Mag. Time & Date
No recent earthquake activity has been reported nearby.
Minimum magnitude displayed is 2.5.

Coastal Water Temperatures

Place Temperature
No Stations Reporting

Nearby Weather Stations